sensor_id;sensor_type;location;lat;lon;timestamp;P1;durP1;ratioP1;P2;durP2;ratioP2
20449;SDS011;10384;51.940;8.432;2023-04-06T00:01:00;7.10;;;3.80;;
20449;SDS011;10384;51.940;8.432;2023-04-06T00:03:26;10.47;;;4.20;;
20449;SDS011;10384;51.940;8.432;2023-04-06T00:05:52;7.03;;;4.17;;
20449;SDS011;10384;51.940;8.432;2023-04-06T00:08:18;8.30;;;3.90;;
20449;SDS011;10384;51.940;8.432;2023-04-06T00:10:46;7.73;;;3.53;;
20449;SDS011;10384;51.940;8.432;2023-04-06T00:13:12;6.67;;;3.80;;
20449;SDS011;10384;51.940;8.432;2023-04-06T00:15:38;5.53;;;3.50;;
20449;SDS011;10384;51.940;8.432;2023-04-06T00:18:04;6.20;;;3.70;;
20449;SDS011;10384;51.940;8.432;2023-04-06T00:20:30;6.70;;;3.73;;
20449;SDS011;10384;51.940;8.432;2023-04-06T00:22:56;7.20;;;3.87;;
20449;SDS011;10384;51.940;8.432;2023-04-06T00:25:22;9.00;;;4.30;;
20449;SDS011;10384;51.940;8.432;2023-04-06T00:27:48;6.90;;;3.97;;
20449;SDS011;10384;51.940;8.432;2023-04-06T00:30:15;9.27;;;4.30;;
20449;SDS011;10384;51.940;8.432;2023-04-06T00:32:41;10.00;;;4.60;;
20449;SDS011;10384;51.940;8.432;2023-04-06T00:35:07;8.90;;;4.30;;
20449;SDS011;10384;51.940;8.432;2023-04-06T00:37:33;6.77;;;3.70;;
20449;SDS011;10384;51.940;8.432;2023-04-06T00:39:59;8.93;;;3.40;;
20449;SDS011;10384;51.940;8.432;2023-04-06T00:42:25;7.10;;;3.73;;
20449;SDS011;10384;51.940;8.432;2023-04-06T00:44:55;10.67;;;4.40;;
20449;SDS011;10384;51.940;8.432;2023-04-06T00:47:21;7.77;;;3.80;;
20449;SDS011;10384;51.940;8.432;2023-04-06T00:49:47;12.17;;;4.60;;
20449;SDS011;10384;51.940;8.432;2023-04-06T00:52:13;6.60;;;4.03;;
20449;SDS011;10384;51.940;8.432;2023-04-06T00:54:39;10.20;;;4.47;;
20449;SDS011;10384;51.940;8.432;2023-04-06T00:57:05;7.27;;;3.93;;
20449;SDS011;10384;51.940;8.432;2023-04-06T00:59:31;11.30;;;4.73;;
20449;SDS011;10384;51.940;8.432;2023-04-06T01:01:58;6.93;;;4.10;;
20449;SDS011;10384;51.940;8.432;2023-04-06T01:04:24;11.23;;;3.90;;
20449;SDS011;10384;51.940;8.432;2023-04-06T01:06:50;8.77;;;4.40;;
20449;SDS011;10384;51.940;8.432;2023-04-06T01:09:16;7.40;;;3.80;;
20449;SDS011;10384;51.940;8.432;2023-04-06T01:11:43;6.83;;;4.13;;
20449;SDS011;10384;51.940;8.432;2023-04-06T01:14:09;7.00;;;3.97;;
20449;SDS011;10384;51.940;8.432;2023-04-06T01:16:35;9.50;;;4.50;;
20449;SDS011;10384;51.940;8.432;2023-04-06T01:19:07;9.30;;;4.60;;
20449;SDS011;10384;51.940;8.432;2023-04-06T01:21:33;10.17;;;4.67;;
20449;SDS011;10384;51.940;8.432;2023-04-06T01:23:59;7.23;;;4.30;;
20449;SDS011;10384;51.940;8.432;2023-04-06T01:26:25;7.93;;;4.47;;
20449;SDS011;10384;51.940;8.432;2023-04-06T01:28:52;8.20;;;4.27;;
20449;SDS011;10384;51.940;8.432;2023-04-06T01:31:18;11.63;;;4.93;;
20449;SDS011;10384;51.940;8.432;2023-04-06T01:33:44;8.93;;;4.70;;
20449;SDS011;10384;51.940;8.432;2023-04-06T01:36:10;6.00;;;4.00;;
20449;SDS011;10384;51.940;8.432;2023-04-06T01:38:36;7.57;;;4.40;;
20449;SDS011;10384;51.940;8.432;2023-04-06T01:41:02;7.50;;;4.73;;
20449;SDS011;10384;51.940;8.432;2023-04-06T01:43:28;7.53;;;4.20;;
20449;SDS011;10384;51.940;8.432;2023-04-06T01:45:54;8.27;;;4.37;;
20449;SDS011;10384;51.940;8.432;2023-04-06T01:48:20;6.83;;;4.47;;
20449;SDS011;10384;51.940;8.432;2023-04-06T01:50:46;7.23;;;4.17;;
20449;SDS011;10384;51.940;8.432;2023-04-06T01:53:12;9.70;;;4.33;;
20449;SDS011;10384;51.940;8.432;2023-04-06T01:55:39;6.77;;;4.43;;
20449;SDS011;10384;51.940;8.432;2023-04-06T01:58:05;10.10;;;5.00;;
20449;SDS011;10384;51.940;8.432;2023-04-06T02:00:31;10.23;;;4.73;;
20449;SDS011;10384;51.940;8.432;2023-04-06T02:02:57;9.87;;;4.23;;
20449;SDS011;10384;51.940;8.432;2023-04-06T02:05:23;8.97;;;4.00;;
20449;SDS011;10384;51.940;8.432;2023-04-06T02:07:49;11.17;;;4.80;;
20449;SDS011;10384;51.940;8.432;2023-04-06T02:10:16;7.97;;;4.50;;
20449;SDS011;10384;51.940;8.432;2023-04-06T02:12:42;9.00;;;4.40;;
20449;SDS011;10384;51.940;8.432;2023-04-06T02:15:08;12.57;;;5.60;;
20449;SDS011;10384;51.940;8.432;2023-04-06T02:17:34;9.00;;;4.33;;
20449;SDS011;10384;51.940;8.432;2023-04-06T02:20:00;10.17;;;4.70;;
20449;SDS011;10384;51.940;8.432;2023-04-06T02:22:27;11.87;;;5.00;;
20449;SDS011;10384;51.940;8.432;2023-04-06T02:24:53;9.83;;;5.57;;
20449;SDS011;10384;51.940;8.432;2023-04-06T02:27:19;9.20;;;5.00;;
20449;SDS011;10384;51.940;8.432;2023-04-06T02:29:45;9.20;;;4.77;;
20449;SDS011;10384;51.940;8.432;2023-04-06T02:32:11;8.33;;;4.57;;
20449;SDS011;10384;51.940;8.432;2023-04-06T02:34:37;9.63;;;4.60;;
20449;SDS011;10384;51.940;8.432;2023-04-06T02:37:03;9.53;;;5.07;;
20449;SDS011;10384;51.940;8.432;2023-04-06T02:39:29;8.43;;;4.80;;
20449;SDS011;10384;51.940;8.432;2023-04-06T02:41:55;8.60;;;4.63;;
20449;SDS011;10384;51.940;8.432;2023-04-06T02:44:23;7.10;;;4.33;;
20449;SDS011;10384;51.940;8.432;2023-04-06T02:46:49;9.53;;;4.70;;
20449;SDS011;10384;51.940;8.432;2023-04-06T02:49:15;11.80;;;4.80;;
20449;SDS011;10384;51.940;8.432;2023-04-06T02:51:41;8.87;;;5.30;;
20449;SDS011;10384;51.940;8.432;2023-04-06T02:54:07;10.00;;;5.13;;
20449;SDS011;10384;51.940;8.432;2023-04-06T02:56:33;10.23;;;5.17;;
20449;SDS011;10384;51.940;8.432;2023-04-06T02:58:59;10.37;;;5.47;;
20449;SDS011;10384;51.940;8.432;2023-04-06T03:01:25;8.73;;;4.93;;
20449;SDS011;10384;51.940;8.432;2023-04-06T03:03:51;8.53;;;4.70;;
20449;SDS011;10384;51.940;8.432;2023-04-06T03:06:17;9.07;;;4.87;;
20449;SDS011;10384;51.940;8.432;2023-04-06T03:08:43;11.70;;;5.03;;
20449;SDS011;10384;51.940;8.432;2023-04-06T03:11:10;8.40;;;4.67;;
20449;SDS011;10384;51.940;8.432;2023-04-06T03:13:36;10.03;;;5.43;;
20449;SDS011;10384;51.940;8.432;2023-04-06T03:16:06;10.63;;;4.87;;
20449;SDS011;10384;51.940;8.432;2023-04-06T03:18:32;10.17;;;4.63;;
20449;SDS011;10384;51.940;8.432;2023-04-06T03:20:58;9.33;;;4.67;;
20449;SDS011;10384;51.940;8.432;2023-04-06T03:23:25;11.73;;;5.30;;
20449;SDS011;10384;51.940;8.432;2023-04-06T03:25:51;9.13;;;4.93;;
20449;SDS011;10384;51.940;8.432;2023-04-06T03:28:17;8.47;;;4.80;;
20449;SDS011;10384;51.940;8.432;2023-04-06T03:30:43;9.27;;;5.07;;
20449;SDS011;10384;51.940;8.432;2023-04-06T03:33:09;9.53;;;4.87;;
20449;SDS011;10384;51.940;8.432;2023-04-06T03:35:35;12.20;;;5.60;;
20449;SDS011;10384;51.940;8.432;2023-04-06T03:38:02;9.80;;;4.97;;
20449;SDS011;10384;51.940;8.432;2023-04-06T03:40:28;8.87;;;4.83;;
20449;SDS011;10384;51.940;8.432;2023-04-06T03:42:54;10.03;;;5.37;;
20449;SDS011;10384;51.940;8.432;2023-04-06T03:45:20;10.07;;;5.20;;
20449;SDS011;10384;51.940;8.432;2023-04-06T03:47:46;9.20;;;4.90;;
20449;SDS011;10384;51.940;8.432;2023-04-06T03:50:12;11.63;;;5.13;;
20449;SDS011;10384;51.940;8.432;2023-04-06T03:52:38;11.33;;;5.40;;
20449;SDS011;10384;51.940;8.432;2023-04-06T03:55:04;13.37;;;4.93;;
20449;SDS011;10384;51.940;8.432;2023-04-06T03:57:30;15.70;;;5.50;;
20449;SDS011;10384;51.940;8.432;2023-04-06T03:59:56;9.47;;;5.40;;
20449;SDS011;10384;51.940;8.432;2023-04-06T04:02:22;11.30;;;4.73;;
20449;SDS011;10384;51.940;8.432;2023-04-06T04:04:48;11.17;;;5.27;;
20449;SDS011;10384;51.940;8.432;2023-04-06T04:07:14;10.93;;;5.00;;
20449;SDS011;10384;51.940;8.432;2023-04-06T04:09:40;10.73;;;5.23;;
20449;SDS011;10384;51.940;8.432;2023-04-06T04:12:06;11.63;;;5.47;;
20449;SDS011;10384;51.940;8.432;2023-04-06T04:14:32;9.47;;;4.67;;
20449;SDS011;10384;51.940;8.432;2023-04-06T04:16:58;13.03;;;5.43;;
20449;SDS011;10384;51.940;8.432;2023-04-06T04:19:24;9.43;;;5.03;;
20449;SDS011;10384;51.940;8.432;2023-04-06T04:21:50;9.53;;;4.90;;
20449;SDS011;10384;51.940;8.432;2023-04-06T04:24:16;8.60;;;5.07;;
20449;SDS011;10384;51.940;8.432;2023-04-06T04:26:42;13.77;;;5.40;;
20449;SDS011;10384;51.940;8.432;2023-04-06T04:29:09;8.63;;;4.63;;
20449;SDS011;10384;51.940;8.432;2023-04-06T04:31:35;9.07;;;4.83;;
20449;SDS011;10384;51.940;8.432;2023-04-06T04:34:01;11.10;;;5.47;;
20449;SDS011;10384;51.940;8.432;2023-04-06T04:36:27;9.40;;;5.20;;
20449;SDS011;10384;51.940;8.432;2023-04-06T04:38:53;12.87;;;5.37;;
20449;SDS011;10384;51.940;8.432;2023-04-06T04:41:19;9.67;;;4.90;;
20449;SDS011;10384;51.940;8.432;2023-04-06T04:43:45;13.70;;;5.87;;
20449;SDS011;10384;51.940;8.432;2023-04-06T04:46:11;12.40;;;6.00;;
20449;SDS011;10384;51.940;8.432;2023-04-06T04:48:37;13.03;;;5.27;;
20449;SDS011;10384;51.940;8.432;2023-04-06T04:51:04;10.27;;;5.43;;
20449;SDS011;10384;51.940;8.432;2023-04-06T04:53:30;13.73;;;5.67;;
20449;SDS011;10384;51.940;8.432;2023-04-06T04:55:56;9.40;;;5.53;;
20449;SDS011;10384;51.940;8.432;2023-04-06T04:58:22;11.50;;;5.53;;
20449;SDS011;10384;51.940;8.432;2023-04-06T05:00:48;15.60;;;5.97;;
20449;SDS011;10384;51.940;8.432;2023-04-06T05:03:19;16.57;;;6.00;;
20449;SDS011;10384;51.940;8.432;2023-04-06T05:05:47;18.73;;;6.17;;
20449;SDS011;10384;51.940;8.432;2023-04-06T05:08:13;12.97;;;5.40;;
20449;SDS011;10384;51.940;8.432;2023-04-06T05:10:39;13.27;;;5.67;;
20449;SDS011;10384;51.940;8.432;2023-04-06T05:13:05;13.60;;;5.40;;
20449;SDS011;10384;51.940;8.432;2023-04-06T05:15:31;9.70;;;5.30;;
20449;SDS011;10384;51.940;8.432;2023-04-06T05:17:59;11.73;;;5.60;;
20449;SDS011;10384;51.940;8.432;2023-04-06T05:20:25;13.53;;;5.67;;
20449;SDS011;10384;51.940;8.432;2023-04-06T05:22:51;14.23;;;5.50;;
20449;SDS011;10384;51.940;8.432;2023-04-06T05:25:17;14.27;;;5.50;;
20449;SDS011;10384;51.940;8.432;2023-04-06T05:27:43;17.50;;;5.87;;
20449;SDS011;10384;51.940;8.432;2023-04-06T05:30:09;13.47;;;5.43;;
20449;SDS011;10384;51.940;8.432;2023-04-06T05:32:35;19.03;;;5.80;;
20449;SDS011;10384;51.940;8.432;2023-04-06T05:35:01;16.37;;;5.67;;
20449;SDS011;10384;51.940;8.432;2023-04-06T05:37:27;20.10;;;5.80;;
20449;SDS011;10384;51.940;8.432;2023-04-06T05:39:53;17.50;;;5.87;;
20449;SDS011;10384;51.940;8.432;2023-04-06T05:42:20;13.87;;;6.13;;
20449;SDS011;10384;51.940;8.432;2023-04-06T05:44:46;24.30;;;6.00;;
20449;SDS011;10384;51.940;8.432;2023-04-06T05:47:12;10.63;;;5.40;;
20449;SDS011;10384;51.940;8.432;2023-04-06T05:49:38;17.10;;;6.33;;
20449;SDS011;10384;51.940;8.432;2023-04-06T05:52:04;13.33;;;5.60;;
20449;SDS011;10384;51.940;8.432;2023-04-06T05:54:30;10.40;;;5.27;;
20449;SDS011;10384;51.940;8.432;2023-04-06T05:56:56;13.60;;;5.90;;
20449;SDS011;10384;51.940;8.432;2023-04-06T05:59:22;14.20;;;5.67;;
20449;SDS011;10384;51.940;8.432;2023-04-06T06:01:48;14.77;;;6.67;;
20449;SDS011;10384;51.940;8.432;2023-04-06T06:04:15;15.20;;;5.40;;
20449;SDS011;10384;51.940;8.432;2023-04-06T06:06:40;15.33;;;5.33;;
20449;SDS011;10384;51.940;8.432;2023-04-06T06:09:06;12.37;;;5.30;;
20449;SDS011;10384;51.940;8.432;2023-04-06T06:11:33;12.80;;;5.07;;
20449;SDS011;10384;51.940;8.432;2023-04-06T06:13:59;13.50;;;5.60;;
20449;SDS011;10384;51.940;8.432;2023-04-06T06:16:25;12.83;;;4.83;;
20449;SDS011;10384;51.940;8.432;2023-04-06T06:18:51;10.93;;;4.83;;
20449;SDS011;10384;51.940;8.432;2023-04-06T06:21:17;8.40;;;4.93;;
20449;SDS011;10384;51.940;8.432;2023-04-06T06:23:43;9.93;;;5.17;;
20449;SDS011;10384;51.940;8.432;2023-04-06T06:26:09;10.80;;;4.67;;
20449;SDS011;10384;51.940;8.432;2023-04-06T06:28:35;7.87;;;4.47;;
20449;SDS011;10384;51.940;8.432;2023-04-06T06:31:01;10.57;;;5.13;;
20449;SDS011;10384;51.940;8.432;2023-04-06T06:33:27;8.93;;;4.90;;
20449;SDS011;10384;51.940;8.432;2023-04-06T06:35:53;9.70;;;4.93;;
20449;SDS011;10384;51.940;8.432;2023-04-06T06:38:19;11.37;;;4.23;;
20449;SDS011;10384;51.940;8.432;2023-04-06T06:40:45;12.37;;;5.20;;
20449;SDS011;10384;51.940;8.432;2023-04-06T06:43:12;11.03;;;4.77;;
20449;SDS011;10384;51.940;8.432;2023-04-06T06:45:38;12.47;;;5.20;;
20449;SDS011;10384;51.940;8.432;2023-04-06T06:48:04;9.93;;;4.80;;
20449;SDS011;10384;51.940;8.432;2023-04-06T06:50:30;12.03;;;5.43;;
20449;SDS011;10384;51.940;8.432;2023-04-06T06:52:56;9.17;;;4.33;;
20449;SDS011;10384;51.940;8.432;2023-04-06T06:55:22;10.27;;;5.63;;
20449;SDS011;10384;51.940;8.432;2023-04-06T06:57:48;10.27;;;4.80;;
20449;SDS011;10384;51.940;8.432;2023-04-06T07:00:14;8.40;;;4.60;;
20449;SDS011;10384;51.940;8.432;2023-04-06T07:02:40;11.20;;;4.90;;
20449;SDS011;10384;51.940;8.432;2023-04-06T07:05:06;9.67;;;4.90;;
20449;SDS011;10384;51.940;8.432;2023-04-06T07:07:32;10.03;;;4.17;;
20449;SDS011;10384;51.940;8.432;2023-04-06T07:09:59;8.10;;;4.47;;
20449;SDS011;10384;51.940;8.432;2023-04-06T07:12:25;10.50;;;5.03;;
20449;SDS011;10384;51.940;8.432;2023-04-06T07:14:51;10.63;;;4.60;;
20449;SDS011;10384;51.940;8.432;2023-04-06T07:17:17;10.03;;;5.00;;
20449;SDS011;10384;51.940;8.432;2023-04-06T07:19:43;9.23;;;4.60;;
20449;SDS011;10384;51.940;8.432;2023-04-06T07:22:10;10.80;;;4.60;;
20449;SDS011;10384;51.940;8.432;2023-04-06T07:24:36;9.70;;;4.37;;
20449;SDS011;10384;51.940;8.432;2023-04-06T07:27:02;8.83;;;4.50;;
20449;SDS011;10384;51.940;8.432;2023-04-06T07:29:28;8.77;;;4.60;;
20449;SDS011;10384;51.940;8.432;2023-04-06T07:31:54;13.50;;;5.00;;
20449;SDS011;10384;51.940;8.432;2023-04-06T07:34:21;11.40;;;4.87;;
20449;SDS011;10384;51.940;8.432;2023-04-06T07:36:47;11.20;;;4.90;;
20449;SDS011;10384;51.940;8.432;2023-04-06T07:39:13;11.03;;;5.37;;
20449;SDS011;10384;51.940;8.432;2023-04-06T07:41:39;9.53;;;4.80;;
20449;SDS011;10384;51.940;8.432;2023-04-06T07:44:05;12.03;;;5.17;;
20449;SDS011;10384;51.940;8.432;2023-04-06T07:46:31;8.50;;;4.47;;
20449;SDS011;10384;51.940;8.432;2023-04-06T07:48:58;6.83;;;4.40;;
20449;SDS011;10384;51.940;8.432;2023-04-06T07:51:26;9.37;;;4.50;;
20449;SDS011;10384;51.940;8.432;2023-04-06T07:53:52;9.37;;;4.37;;
20449;SDS011;10384;51.940;8.432;2023-04-06T07:56:18;10.60;;;4.60;;
20449;SDS011;10384;51.940;8.432;2023-04-06T07:58:45;10.00;;;4.97;;
20449;SDS011;10384;51.940;8.432;2023-04-06T08:01:12;11.73;;;4.37;;
20449;SDS011;10384;51.940;8.432;2023-04-06T08:03:38;11.47;;;4.73;;
20449;SDS011;10384;51.940;8.432;2023-04-06T08:06:04;8.97;;;4.70;;
20449;SDS011;10384;51.940;8.432;2023-04-06T08:08:30;9.13;;;4.30;;
20449;SDS011;10384;51.940;8.432;2023-04-06T08:10:56;11.57;;;4.90;;
20449;SDS011;10384;51.940;8.432;2023-04-06T08:13:22;10.37;;;4.30;;
20449;SDS011;10384;51.940;8.432;2023-04-06T08:15:48;9.10;;;4.63;;
20449;SDS011;10384;51.940;8.432;2023-04-06T08:18:14;10.80;;;4.50;;
20449;SDS011;10384;51.940;8.432;2023-04-06T08:20:40;8.53;;;4.33;;
20449;SDS011;10384;51.940;8.432;2023-04-06T08:23:06;9.97;;;4.03;;
20449;SDS011;10384;51.940;8.432;2023-04-06T08:25:34;9.63;;;4.57;;
20449;SDS011;10384;51.940;8.432;2023-04-06T08:28:01;9.73;;;4.50;;
20449;SDS011;10384;51.940;8.432;2023-04-06T08:30:27;10.00;;;4.70;;
20449;SDS011;10384;51.940;8.432;2023-04-06T08:32:53;8.87;;;4.90;;
20449;SDS011;10384;51.940;8.432;2023-04-06T08:35:19;9.70;;;4.30;;
20449;SDS011;10384;51.940;8.432;2023-04-06T08:37:45;7.63;;;4.20;;
20449;SDS011;10384;51.940;8.432;2023-04-06T08:40:11;10.10;;;5.07;;
20449;SDS011;10384;51.940;8.432;2023-04-06T08:42:44;9.77;;;4.53;;
20449;SDS011;10384;51.940;8.432;2023-04-06T08:45:10;10.53;;;4.60;;
20449;SDS011;10384;51.940;8.432;2023-04-06T08:47:36;12.13;;;4.93;;
20449;SDS011;10384;51.940;8.432;2023-04-06T08:50:06;8.50;;;4.20;;
20449;SDS011;10384;51.940;8.432;2023-04-06T08:52:33;9.53;;;4.87;;
20449;SDS011;10384;51.940;8.432;2023-04-06T08:54:59;9.20;;;3.80;;
20449;SDS011;10384;51.940;8.432;2023-04-06T08:57:25;9.07;;;4.43;;
20449;SDS011;10384;51.940;8.432;2023-04-06T08:59:52;7.67;;;4.27;;
20449;SDS011;10384;51.940;8.432;2023-04-06T09:02:18;10.63;;;5.17;;
20449;SDS011;10384;51.940;8.432;2023-04-06T09:04:47;11.50;;;5.83;;
20449;SDS011;10384;51.940;8.432;2023-04-06T09:07:15;12.90;;;5.17;;
20449;SDS011;10384;51.940;8.432;2023-04-06T09:09:41;9.07;;;4.27;;
20449;SDS011;10384;51.940;8.432;2023-04-06T09:12:22;9.70;;;4.37;;
20449;SDS011;10384;51.940;8.432;2023-04-06T09:14:48;11.10;;;4.87;;
20449;SDS011;10384;51.940;8.432;2023-04-06T09:17:47;9.97;;;4.80;;
20449;SDS011;10384;51.940;8.432;2023-04-06T09:20:06;8.60;;;4.70;;
20449;SDS011;10384;51.940;8.432;2023-04-06T09:22:36;9.93;;;5.10;;
20449;SDS011;10384;51.940;8.432;2023-04-06T09:25:02;11.53;;;4.90;;
20449;SDS011;10384;51.940;8.432;2023-04-06T09:27:32;10.50;;;5.33;;
20449;SDS011;10384;51.940;8.432;2023-04-06T09:32:31;13.17;;;6.00;;
20449;SDS011;10384;51.940;8.432;2023-04-06T09:35:09;9.67;;;4.67;;
20449;SDS011;10384;51.940;8.432;2023-04-06T09:37:35;10.30;;;5.10;;
20449;SDS011;10384;51.940;8.432;2023-04-06T09:40:02;11.43;;;5.27;;
20449;SDS011;10384;51.940;8.432;2023-04-06T09:42:28;11.73;;;4.70;;
20449;SDS011;10384;51.940;8.432;2023-04-06T09:44:54;9.90;;;4.67;;
20449;SDS011;10384;51.940;8.432;2023-04-06T09:47:20;13.17;;;5.97;;
20449;SDS011;10384;51.940;8.432;2023-04-06T09:49:48;11.87;;;5.37;;
20449;SDS011;10384;51.940;8.432;2023-04-06T09:52:15;10.47;;;4.37;;
20449;SDS011;10384;51.940;8.432;2023-04-06T09:54:43;9.20;;;5.27;;
20449;SDS011;10384;51.940;8.432;2023-04-06T10:02:05;10.87;;;5.63;;
20449;SDS011;10384;51.940;8.432;2023-04-06T10:04:46;13.13;;;5.70;;
20449;SDS011;10384;51.940;8.432;2023-04-06T10:07:14;9.60;;;5.20;;
20449;SDS011;10384;51.940;8.432;2023-04-06T10:09:40;15.27;;;5.97;;
20449;SDS011;10384;51.940;8.432;2023-04-06T10:12:09;13.33;;;5.20;;
20449;SDS011;10384;51.940;8.432;2023-04-06T10:14:35;13.07;;;5.73;;
20449;SDS011;10384;51.940;8.432;2023-04-06T10:17:06;11.87;;;5.53;;
20449;SDS011;10384;51.940;8.432;2023-04-06T10:19:44;10.70;;;5.70;;
20449;SDS011;10384;51.940;8.432;2023-04-06T10:22:14;10.83;;;5.70;;
20449;SDS011;10384;51.940;8.432;2023-04-06T10:24:44;13.20;;;5.43;;
20449;SDS011;10384;51.940;8.432;2023-04-06T10:27:10;15.07;;;6.63;;
20449;SDS011;10384;51.940;8.432;2023-04-06T10:29:46;12.73;;;5.90;;
20449;SDS011;10384;51.940;8.432;2023-04-06T10:32:13;12.97;;;6.37;;
20449;SDS011;10384;51.940;8.432;2023-04-06T10:34:39;14.70;;;6.07;;
20449;SDS011;10384;51.940;8.432;2023-04-06T10:37:15;13.17;;;6.03;;
20449;SDS011;10384;51.940;8.432;2023-04-06T10:39:51;16.27;;;6.20;;
20449;SDS011;10384;51.940;8.432;2023-04-06T10:42:35;12.63;;;6.10;;
20449;SDS011;10384;51.940;8.432;2023-04-06T10:45:04;14.53;;;5.97;;
20449;SDS011;10384;51.940;8.432;2023-04-06T10:47:38;13.10;;;6.00;;
20449;SDS011;10384;51.940;8.432;2023-04-06T10:50:04;11.07;;;5.63;;
20449;SDS011;10384;51.940;8.432;2023-04-06T10:52:30;13.20;;;5.87;;
20449;SDS011;10384;51.940;8.432;2023-04-06T10:54:56;14.27;;;5.90;;
20449;SDS011;10384;51.940;8.432;2023-04-06T10:57:29;19.03;;;6.57;;
20449;SDS011;10384;51.940;8.432;2023-04-06T10:59:56;16.70;;;6.87;;
20449;SDS011;10384;51.940;8.432;2023-04-06T11:02:22;15.23;;;5.97;;
20449;SDS011;10384;51.940;8.432;2023-04-06T11:04:55;13.10;;;6.57;;
20449;SDS011;10384;51.940;8.432;2023-04-06T11:07:22;12.93;;;6.07;;
20449;SDS011;10384;51.940;8.432;2023-04-06T11:09:49;12.50;;;5.80;;
20449;SDS011;10384;51.940;8.432;2023-04-06T11:14:54;16.13;;;5.80;;
20449;SDS011;10384;51.940;8.432;2023-04-06T11:17:27;14.10;;;6.03;;
20449;SDS011;10384;51.940;8.432;2023-04-06T11:19:54;15.57;;;6.77;;
20449;SDS011;10384;51.940;8.432;2023-04-06T11:22:20;15.17;;;6.10;;
20449;SDS011;10384;51.940;8.432;2023-04-06T11:24:46;14.03;;;6.27;;
20449;SDS011;10384;51.940;8.432;2023-04-06T11:27:13;12.93;;;6.23;;
20449;SDS011;10384;51.940;8.432;2023-04-06T11:29:42;14.03;;;6.23;;
20449;SDS011;10384;51.940;8.432;2023-04-06T11:32:11;13.67;;;6.00;;
20449;SDS011;10384;51.940;8.432;2023-04-06T11:34:37;14.67;;;6.40;;
20449;SDS011;10384;51.940;8.432;2023-04-06T11:37:07;13.70;;;6.33;;
20449;SDS011;10384;51.940;8.432;2023-04-06T11:39:40;16.80;;;6.93;;
20449;SDS011;10384;51.940;8.432;2023-04-06T11:42:06;15.23;;;5.93;;
20449;SDS011;10384;51.940;8.432;2023-04-06T11:44:36;13.30;;;6.30;;
20449;SDS011;10384;51.940;8.432;2023-04-06T11:47:04;13.23;;;6.30;;
20449;SDS011;10384;51.940;8.432;2023-04-06T11:49:31;12.83;;;5.40;;
20449;SDS011;10384;51.940;8.432;2023-04-06T11:51:57;12.17;;;5.33;;
20449;SDS011;10384;51.940;8.432;2023-04-06T11:54:33;14.47;;;5.87;;
20449;SDS011;10384;51.940;8.432;2023-04-06T11:57:00;15.53;;;6.20;;
20449;SDS011;10384;51.940;8.432;2023-04-06T11:59:26;12.60;;;5.60;;
20449;SDS011;10384;51.940;8.432;2023-04-06T12:01:52;12.30;;;5.40;;
20449;SDS011;10384;51.940;8.432;2023-04-06T12:04:18;12.37;;;5.67;;
20449;SDS011;10384;51.940;8.432;2023-04-06T12:06:44;12.57;;;4.80;;
20449;SDS011;10384;51.940;8.432;2023-04-06T12:09:10;9.57;;;4.97;;
20449;SDS011;10384;51.940;8.432;2023-04-06T12:11:36;9.93;;;4.87;;
20449;SDS011;10384;51.940;8.432;2023-04-06T12:14:03;11.33;;;5.23;;
20449;SDS011;10384;51.940;8.432;2023-04-06T12:16:30;11.23;;;5.63;;
20449;SDS011;10384;51.940;8.432;2023-04-06T12:18:56;13.27;;;5.23;;
20449;SDS011;10384;51.940;8.432;2023-04-06T12:21:22;12.60;;;6.03;;
20449;SDS011;10384;51.940;8.432;2023-04-06T12:23:48;12.73;;;5.00;;
20449;SDS011;10384;51.940;8.432;2023-04-06T12:26:14;12.53;;;5.60;;
20449;SDS011;10384;51.940;8.432;2023-04-06T12:28:40;13.33;;;4.90;;
20449;SDS011;10384;51.940;8.432;2023-04-06T12:31:06;12.53;;;5.10;;
20449;SDS011;10384;51.940;8.432;2023-04-06T12:33:32;10.43;;;5.20;;
20449;SDS011;10384;51.940;8.432;2023-04-06T12:35:58;12.43;;;5.30;;
20449;SDS011;10384;51.940;8.432;2023-04-06T12:38:25;13.37;;;5.47;;
20449;SDS011;10384;51.940;8.432;2023-04-06T12:40:51;11.40;;;5.33;;
20449;SDS011;10384;51.940;8.432;2023-04-06T12:43:17;11.67;;;5.27;;
20449;SDS011;10384;51.940;8.432;2023-04-06T12:45:43;13.17;;;5.20;;
20449;SDS011;10384;51.940;8.432;2023-04-06T12:48:09;11.47;;;4.73;;
20449;SDS011;10384;51.940;8.432;2023-04-06T12:50:35;11.57;;;5.47;;
20449;SDS011;10384;51.940;8.432;2023-04-06T12:53:01;10.27;;;5.27;;
20449;SDS011;10384;51.940;8.432;2023-04-06T12:55:29;12.20;;;5.30;;
20449;SDS011;10384;51.940;8.432;2023-04-06T12:57:55;12.00;;;5.57;;
20449;SDS011;10384;51.940;8.432;2023-04-06T13:00:21;12.53;;;4.90;;
20449;SDS011;10384;51.940;8.432;2023-04-06T13:02:47;12.90;;;5.00;;
20449;SDS011;10384;51.940;8.432;2023-04-06T13:05:13;13.53;;;5.80;;
20449;SDS011;10384;51.940;8.432;2023-04-06T13:07:43;12.87;;;5.00;;
20449;SDS011;10384;51.940;8.432;2023-04-06T13:10:09;10.30;;;4.50;;
20449;SDS011;10384;51.940;8.432;2023-04-06T13:12:35;10.47;;;5.27;;
20449;SDS011;10384;51.940;8.432;2023-04-06T13:15:01;17.77;;;5.40;;
20449;SDS011;10384;51.940;8.432;2023-04-06T13:17:27;11.60;;;4.80;;
20449;SDS011;10384;51.940;8.432;2023-04-06T13:19:53;11.97;;;4.87;;
20449;SDS011;10384;51.940;8.432;2023-04-06T13:22:19;12.33;;;5.40;;
20449;SDS011;10384;51.940;8.432;2023-04-06T13:24:45;14.10;;;5.83;;
20449;SDS011;10384;51.940;8.432;2023-04-06T13:27:11;11.77;;;5.20;;
20449;SDS011;10384;51.940;8.432;2023-04-06T13:29:37;12.80;;;5.63;;
20449;SDS011;10384;51.940;8.432;2023-04-06T13:32:03;13.43;;;5.17;;
20449;SDS011;10384;51.940;8.432;2023-04-06T13:34:30;12.03;;;5.53;;
20449;SDS011;10384;51.940;8.432;2023-04-06T13:36:56;15.70;;;6.63;;
20449;SDS011;10384;51.940;8.432;2023-04-06T13:39:22;13.57;;;6.43;;
20449;SDS011;10384;51.940;8.432;2023-04-06T13:41:48;16.07;;;5.63;;
20449;SDS011;10384;51.940;8.432;2023-04-06T13:44:14;16.43;;;5.90;;
20449;SDS011;10384;51.940;8.432;2023-04-06T13:46:40;14.00;;;5.93;;
20449;SDS011;10384;51.940;8.432;2023-04-06T13:49:06;13.00;;;5.47;;
20449;SDS011;10384;51.940;8.432;2023-04-06T13:51:32;16.17;;;6.33;;
20449;SDS011;10384;51.940;8.432;2023-04-06T13:53:58;14.37;;;6.83;;
20449;SDS011;10384;51.940;8.432;2023-04-06T13:56:24;18.37;;;6.57;;
20449;SDS011;10384;51.940;8.432;2023-04-06T13:58:53;15.17;;;7.07;;
20449;SDS011;10384;51.940;8.432;2023-04-06T14:01:20;12.60;;;5.83;;
20449;SDS011;10384;51.940;8.432;2023-04-06T14:03:46;14.30;;;6.00;;
20449;SDS011;10384;51.940;8.432;2023-04-06T14:06:13;14.20;;;6.37;;
20449;SDS011;10384;51.940;8.432;2023-04-06T14:08:39;19.40;;;7.03;;
20449;SDS011;10384;51.940;8.432;2023-04-06T14:11:06;14.43;;;6.63;;
20449;SDS011;10384;51.940;8.432;2023-04-06T14:13:33;15.23;;;6.27;;
20449;SDS011;10384;51.940;8.432;2023-04-06T14:15:59;13.37;;;6.37;;
20449;SDS011;10384;51.940;8.432;2023-04-06T14:18:25;22.20;;;6.73;;
20449;SDS011;10384;51.940;8.432;2023-04-06T14:20:55;16.47;;;7.13;;
20449;SDS011;10384;51.940;8.432;2023-04-06T14:23:22;15.20;;;7.07;;
20449;SDS011;10384;51.940;8.432;2023-04-06T14:25:50;14.27;;;6.03;;
20449;SDS011;10384;51.940;8.432;2023-04-06T14:28:16;15.17;;;7.17;;
20449;SDS011;10384;51.940;8.432;2023-04-06T14:30:43;15.47;;;6.43;;
20449;SDS011;10384;51.940;8.432;2023-04-06T14:33:09;14.53;;;6.60;;
20449;SDS011;10384;51.940;8.432;2023-04-06T14:35:37;15.30;;;6.83;;
20449;SDS011;10384;51.940;8.432;2023-04-06T14:38:03;16.10;;;6.40;;
20449;SDS011;10384;51.940;8.432;2023-04-06T14:40:30;15.30;;;6.33;;
20449;SDS011;10384;51.940;8.432;2023-04-06T14:42:56;15.70;;;6.37;;
20449;SDS011;10384;51.940;8.432;2023-04-06T14:45:22;17.80;;;6.77;;